»·PEaware :: N911CK KSMO-KBUR

N911CK :: KSMO-KBUR

FLIGHT INFORMATION

Flight Status: Arrived
Operator: Privately registered:
United States
More flights under this callsign
Pilot: Joseph K. (11614)
Aircraft: CIRRUS SR-20
(SR20)
More flights by this aircraft type
Origin: KSMO Santa Monica Mun
United States
Destination: KBUR Bob Hope-Burbank
United States
More flights between these airports :: More routes between these airports
Route: SMO SMO311 SILEX
File this flight plan on PilotEdge
Remarks:
Altitude:
(Current/Filed)
4,000ft
Speed:
(Current/Filed)
135kts
Departed: 06-Oct-18 02:54 PM
Arrived: 06-Oct-18 03:25 PM
Distance/Time
Traveled:
12nm/0:30
Distance/Time
To Go:
Arrived

Flight Plot

Page will automatically refresh every two minutes.


Map Options




Map Legend


Flown Route
Filed Route
Departure Airport
Arrival Airport
Navaid (VOR, NDB)
Fix

Horizontal Profiles

Position Reports

Time Latitude Longitude Heading Altitude Ground
Speed
06-Oct-18 14:28 34.017769 -118.450514 135 146ft 0kts
06-Oct-18 14:29 34.017769 -118.450514 135 146ft 0kts
06-Oct-18 14:30 34.017769 -118.450514 135 146ft 0kts
06-Oct-18 14:31 34.017769 -118.450514 135 146ft 0kts
06-Oct-18 14:32 34.017769 -118.450514 135 146ft 0kts
06-Oct-18 14:33 34.017769 -118.450514 135 146ft 0kts
06-Oct-18 14:34 34.017769 -118.450514 135 146ft 0kts
06-Oct-18 14:35 34.017769 -118.450514 135 146ft 0kts
06-Oct-18 14:36 34.017769 -118.450514 135 146ft 0kts
06-Oct-18 14:37 34.017769 -118.450514 135 146ft 0kts
06-Oct-18 14:38 34.017769 -118.450514 135 146ft 0kts
06-Oct-18 14:39 34.017769 -118.450514 135 146ft 0kts
06-Oct-18 14:40 34.017769 -118.450514 135 146ft 0kts
06-Oct-18 14:41 34.017769 -118.450514 135 146ft 0kts
06-Oct-18 14:42 34.017769 -118.450514 135 146ft 0kts
06-Oct-18 14:43 34.017769 -118.450514 135 146ft 0kts
06-Oct-18 14:44 34.017769 -118.450514 135 146ft 0kts
06-Oct-18 14:45 34.017769 -118.450514 135 146ft 0kts
06-Oct-18 14:46 34.017769 -118.450514 135 146ft 0kts
06-Oct-18 14:47 34.017769 -118.450514 135 146ft 0kts
06-Oct-18 14:48 34.017769 -118.450514 135 146ft 0kts
06-Oct-18 14:49 34.017769 -118.450514 135 146ft 0kts
06-Oct-18 14:50 34.017769 -118.450514 135 146ft 0kts
06-Oct-18 14:51 34.017769 -118.450514 135 146ft 0kts
06-Oct-18 14:52 34.017846 -118.450061 61 148ft 9kts
06-Oct-18 14:53 34.018916 -118.448819 51 154ft 4kts
06-Oct-18 14:54 34.019558 -118.447786 122 159ft 0kts
06-Oct-18 14:55 34.019558 -118.447786 122 159ft 0kts
06-Oct-18 14:56 34.018270 -118.448359 221 153ft 43kts
06-Oct-18 14:57 34.005322 -118.465043 228 558ft 106kts
06-Oct-18 14:58 33.990424 -118.484893 238 1368ft 106kts
06-Oct-18 14:59 33.987856 -118.509490 261 2044ft 107kts
06-Oct-18 15:00 33.986252 -118.535604 260 2718ft 107kts
06-Oct-18 15:01 33.984740 -118.560047 260 3019ft 126kts
06-Oct-18 15:02 33.984637 -118.586010 281 3124ft 137kts
06-Oct-18 15:03 33.990376 -118.609502 280 3855ft 112kts
06-Oct-18 15:04 33.996830 -118.635679 287 4016ft 135kts
06-Oct-18 15:05 34.022820 -118.646680 352 4016ft 159kts
06-Oct-18 15:06 34.053461 -118.649140 352 4015ft 162kts
06-Oct-18 15:07 34.080870 -118.651407 351 4018ft 163kts
06-Oct-18 15:08 34.105445 -118.653377 351 4017ft 163kts
06-Oct-18 15:09 34.128138 -118.655177 351 4016ft 161kts
06-Oct-18 15:10 34.150922 -118.657024 351 4015ft 159kts
06-Oct-18 15:11 34.172553 -118.653209 39 4003ft 166kts
06-Oct-18 15:12 34.182941 -118.630639 61 4013ft 166kts
06-Oct-18 15:13 34.193489 -118.603388 61 3845ft 151kts
06-Oct-18 15:14 34.200940 -118.581896 80 3543ft 139kts
06-Oct-18 15:15 34.200221 -118.552015 88 3137ft 125kts
06-Oct-18 15:16 34.199815 -118.524187 88 3014ft 115kts
06-Oct-18 15:17 34.199505 -118.499418 88 3008ft 103kts
06-Oct-18 15:18 34.199187 -118.474172 90 2686ft 104kts
06-Oct-18 15:19 34.198722 -118.446482 92 1992ft 108kts
06-Oct-18 15:20 34.198196 -118.420705 82 1541ft 99kts
06-Oct-18 15:21 34.205111 -118.401381 40 1637ft 89kts
06-Oct-18 15:22 34.225903 -118.400619 355 1788ft 97kts
06-Oct-18 15:23 34.245179 -118.397866 54 1788ft 89kts
06-Oct-18 15:24 34.241504 -118.382280 137 1328ft 79kts
06-Oct-18 15:25 34.228373 -118.368915 138 1286ft 98kts
06-Oct-18 15:26 34.214557 -118.361139 168 852ft 70kts
06-Oct-18 15:27 34.204174 -118.358206 167 732ft 21kts
06-Oct-18 15:28 34.202866 -118.358794 239 730ft 0kts
06-Oct-18 15:29 34.201332 -118.359152 202 724ft 20kts

Navigation Log

Ident Type
1. KSMO Airport
2. SMO Navaid
3. SILEX Fix
4. KBUR Airport